NCAR-RAP Real-Time Weather Data

Output produced by METARs form (06 May 2021  15:28 UTC)
found at http://weather.rap.ucar.edu/surface/
 
KTTN 061453Z 31011G17KT 10SM BKN048 13/04 A2999 RMK AO2 SLP149 T01330039 53003
KTTN 061353Z 33012G19KT 10SM FEW045 13/03 A2998 RMK AO2 SLP148 T01280028
KTTN 061253Z 33013G21KT 10SM CLR 12/04 A2997 RMK AO2 SLP144 T01220039
KTTN 061153Z 30009KT 10SM CLR 11/05 A2998 RMK AO2 SLP146 70038 T01110050 10111 20078 51022
KTTN 061053Z 29005KT 10SM BKN041 09/04 A2996 RMK AO2 SLP141 T00890044
KTTN 060953Z 27004KT 10SM CLR 08/04 A2993 RMK AO2 SLP130 T00830039
KTTN 060853Z AUTO 28005KT 10SM CLR 08/04 A2991 RMK AO2 SLP124 T00830039 53007
KTTN 060753Z AUTO 30006KT 10SM CLR 09/04 A2989 RMK AO2 SLP117 T00890039
KTTN 060653Z AUTO 30005KT 10SM CLR 09/04 A2989 RMK AO2 SLP115 T00940044
KTTN 060553Z AUTO 30003KT 10SM CLR 10/04 A2989 RMK AO2 SLP117 T01000044 10150 20100 51010
KTTN 060453Z AUTO 33010KT 10SM CLR 11/05 A2989 RMK AO2 SLP115 T01060050 402000106
KTTN 060353Z AUTO 32003KT 10SM CLR 11/07 A2989 RMK AO2 SLP114 T01110067
KTTN 060253Z AUTO 33010G18KT 10SM BKN047 12/07 A2986 RMK AO2 SLP107 T01220067 51025
KTTN 060153Z 33008KT 10SM OVC039 14/08 A2985 RMK AO2 SLP101 T01390083
KTTN 060053Z 32007KT 10SM FEW049 SCT110 14/08 A2982 RMK AO2 SLP093 T01390083
KTTN 052353Z 34010G17KT 10SM SCT031 OVC060 15/11 A2979 RMK AO2 RAE2258 SLP081 P0000 60003 T01500106 10200 20139 53046